sensor_id;sensor_type;location;lat;lon;timestamp;P1;durP1;ratioP1;P2;durP2;ratioP2
26774;SDS011;14362;51.902;7.626;2024-02-21T00:02:49;26.30;;;13.85;;
26774;SDS011;14362;51.902;7.626;2024-02-21T00:06:51;26.25;;;12.60;;
26774;SDS011;14362;51.902;7.626;2024-02-21T00:10:52;26.52;;;15.00;;
26774;SDS011;14362;51.902;7.626;2024-02-21T00:14:54;25.38;;;14.13;;
26774;SDS011;14362;51.902;7.626;2024-02-21T00:18:57;30.17;;;14.93;;
26774;SDS011;14362;51.902;7.626;2024-02-21T00:22:59;24.67;;;14.32;;
26774;SDS011;14362;51.902;7.626;2024-02-21T00:27:00;32.38;;;14.50;;
26774;SDS011;14362;51.902;7.626;2024-02-21T00:31:02;26.52;;;14.75;;
26774;SDS011;14362;51.902;7.626;2024-02-21T00:35:05;27.70;;;15.52;;
26774;SDS011;14362;51.902;7.626;2024-02-21T00:39:06;34.10;;;17.25;;
26774;SDS011;14362;51.902;7.626;2024-02-21T00:43:08;32.08;;;16.85;;
26774;SDS011;14362;51.902;7.626;2024-02-21T00:47:09;31.30;;;18.67;;
26774;SDS011;14362;51.902;7.626;2024-02-21T00:51:12;36.90;;;17.73;;
26774;SDS011;14362;51.902;7.626;2024-02-21T00:55:14;31.60;;;17.65;;
26774;SDS011;14362;51.902;7.626;2024-02-21T00:59:16;33.65;;;18.15;;
26774;SDS011;14362;51.902;7.626;2024-02-21T01:03:17;33.88;;;18.23;;
26774;SDS011;14362;51.902;7.626;2024-02-21T01:07:20;35.42;;;17.50;;
26774;SDS011;14362;51.902;7.626;2024-02-21T01:11:22;35.13;;;19.15;;
26774;SDS011;14362;51.902;7.626;2024-02-21T01:15:23;39.20;;;18.42;;
26774;SDS011;14362;51.902;7.626;2024-02-21T01:19:25;37.40;;;17.33;;
26774;SDS011;14362;51.902;7.626;2024-02-21T01:23:28;31.70;;;17.70;;
26774;SDS011;14362;51.902;7.626;2024-02-21T01:27:29;34.47;;;18.17;;
26774;SDS011;14362;51.902;7.626;2024-02-21T01:31:31;40.90;;;19.67;;
26774;SDS011;14362;51.902;7.626;2024-02-21T01:35:32;33.55;;;17.05;;
26774;SDS011;14362;51.902;7.626;2024-02-21T01:39:37;33.20;;;18.08;;
26774;SDS011;14362;51.902;7.626;2024-02-21T01:43:38;31.10;;;17.02;;
26774;SDS011;14362;51.902;7.626;2024-02-21T01:47:39;36.03;;;17.70;;
26774;SDS011;14362;51.902;7.626;2024-02-21T01:51:41;33.25;;;16.75;;
26774;SDS011;14362;51.902;7.626;2024-02-21T01:55:44;33.83;;;17.88;;
26774;SDS011;14362;51.902;7.626;2024-02-21T01:59:46;33.47;;;16.67;;
26774;SDS011;14362;51.902;7.626;2024-02-21T02:03:48;39.75;;;17.52;;
26774;SDS011;14362;51.902;7.626;2024-02-21T02:07:50;34.33;;;16.70;;
26774;SDS011;14362;51.902;7.626;2024-02-21T02:11:53;34.03;;;16.70;;
26774;SDS011;14362;51.902;7.626;2024-02-21T02:15:54;34.22;;;17.08;;
26774;SDS011;14362;51.902;7.626;2024-02-21T02:19:56;34.88;;;16.85;;
26774;SDS011;14362;51.902;7.626;2024-02-21T02:23:58;33.70;;;16.25;;
26774;SDS011;14362;51.902;7.626;2024-02-21T02:28:00;29.90;;;15.05;;
26774;SDS011;14362;51.902;7.626;2024-02-21T02:32:01;32.30;;;16.67;;
26774;SDS011;14362;51.902;7.626;2024-02-21T02:36:03;34.63;;;16.15;;
26774;SDS011;14362;51.902;7.626;2024-02-21T02:40:07;30.02;;;16.23;;
26774;SDS011;14362;51.902;7.626;2024-02-21T02:44:09;29.83;;;15.35;;
26774;SDS011;14362;51.902;7.626;2024-02-21T02:48:10;29.33;;;15.73;;
26774;SDS011;14362;51.902;7.626;2024-02-21T02:52:12;30.48;;;15.30;;
26774;SDS011;14362;51.902;7.626;2024-02-21T02:56:15;32.80;;;17.33;;
26774;SDS011;14362;51.902;7.626;2024-02-21T03:00:17;34.83;;;14.90;;
26774;SDS011;14362;51.902;7.626;2024-02-21T03:04:18;31.95;;;16.00;;
26774;SDS011;14362;51.902;7.626;2024-02-21T03:08:20;35.13;;;16.70;;
26774;SDS011;14362;51.902;7.626;2024-02-21T03:12:24;34.10;;;15.43;;
26774;SDS011;14362;51.902;7.626;2024-02-21T03:20:29;31.60;;;13.23;;
26774;SDS011;14362;51.902;7.626;2024-02-21T03:24:31;27.67;;;15.00;;
26774;SDS011;14362;51.902;7.626;2024-02-21T03:28:34;27.65;;;13.48;;
26774;SDS011;14362;51.902;7.626;2024-02-21T03:32:35;29.67;;;14.02;;
26774;SDS011;14362;51.902;7.626;2024-02-21T03:36:38;30.27;;;13.88;;
26774;SDS011;14362;51.902;7.626;2024-02-21T03:40:39;25.33;;;13.65;;
26774;SDS011;14362;51.902;7.626;2024-02-21T03:44:42;28.55;;;12.55;;
26774;SDS011;14362;51.902;7.626;2024-02-21T03:48:44;26.75;;;13.85;;
26774;SDS011;14362;51.902;7.626;2024-02-21T03:52:46;30.60;;;12.20;;
26774;SDS011;14362;51.902;7.626;2024-02-21T03:56:47;23.48;;;13.18;;
26774;SDS011;14362;51.902;7.626;2024-02-21T04:00:50;18.50;;;12.23;;
26774;SDS011;14362;51.902;7.626;2024-02-21T04:04:52;19.85;;;11.50;;
26774;SDS011;14362;51.902;7.626;2024-02-21T04:08:53;20.60;;;11.75;;
26774;SDS011;14362;51.902;7.626;2024-02-21T04:12:54;28.17;;;11.10;;
26774;SDS011;14362;51.902;7.626;2024-02-21T04:16:57;23.58;;;11.68;;
26774;SDS011;14362;51.902;7.626;2024-02-21T04:20:59;26.67;;;12.50;;
26774;SDS011;14362;51.902;7.626;2024-02-21T04:25:00;21.60;;;11.23;;
26774;SDS011;14362;51.902;7.626;2024-02-21T04:29:02;17.35;;;9.57;;
26774;SDS011;14362;51.902;7.626;2024-02-21T04:33:04;20.38;;;10.32;;
26774;SDS011;14362;51.902;7.626;2024-02-21T04:37:06;18.08;;;9.68;;
26774;SDS011;14362;51.902;7.626;2024-02-21T04:41:07;22.70;;;10.40;;
26774;SDS011;14362;51.902;7.626;2024-02-21T04:45:09;22.65;;;10.30;;
26774;SDS011;14362;51.902;7.626;2024-02-21T04:49:12;16.67;;;9.35;;
26774;SDS011;14362;51.902;7.626;2024-02-21T04:53:14;20.95;;;9.45;;
26774;SDS011;14362;51.902;7.626;2024-02-21T04:57:16;16.65;;;9.82;;
26774;SDS011;14362;51.902;7.626;2024-02-21T05:01:17;18.95;;;9.77;;
26774;SDS011;14362;51.902;7.626;2024-02-21T05:05:20;19.20;;;9.13;;
26774;SDS011;14362;51.902;7.626;2024-02-21T05:09:22;19.45;;;9.90;;
26774;SDS011;14362;51.902;7.626;2024-02-21T05:13:23;18.77;;;8.93;;
26774;SDS011;14362;51.902;7.626;2024-02-21T05:17:24;19.33;;;9.30;;
26774;SDS011;14362;51.902;7.626;2024-02-21T05:21:27;14.73;;;8.50;;
26774;SDS011;14362;51.902;7.626;2024-02-21T05:25:29;15.63;;;9.57;;
26774;SDS011;14362;51.902;7.626;2024-02-21T05:29:30;19.63;;;9.30;;
26774;SDS011;14362;51.902;7.626;2024-02-21T05:33:32;18.02;;;9.10;;
26774;SDS011;14362;51.902;7.626;2024-02-21T05:37:34;23.48;;;9.35;;
26774;SDS011;14362;51.902;7.626;2024-02-21T05:41:36;16.02;;;8.90;;
26774;SDS011;14362;51.902;7.626;2024-02-21T05:45:37;18.85;;;9.43;;
26774;SDS011;14362;51.902;7.626;2024-02-21T05:49:39;18.73;;;9.68;;
26774;SDS011;14362;51.902;7.626;2024-02-21T05:53:42;19.45;;;10.25;;
26774;SDS011;14362;51.902;7.626;2024-02-21T05:57:43;21.33;;;11.10;;
26774;SDS011;14362;51.902;7.626;2024-02-21T06:01:45;21.52;;;10.48;;
26774;SDS011;14362;51.902;7.626;2024-02-21T06:05:46;24.90;;;11.45;;
26774;SDS011;14362;51.902;7.626;2024-02-21T06:09:49;26.98;;;11.38;;
26774;SDS011;14362;51.902;7.626;2024-02-21T06:13:50;20.67;;;11.18;;
26774;SDS011;14362;51.902;7.626;2024-02-21T06:17:52;27.45;;;12.07;;
26774;SDS011;14362;51.902;7.626;2024-02-21T06:21:53;26.27;;;11.77;;
26774;SDS011;14362;51.902;7.626;2024-02-21T06:25:56;27.02;;;11.32;;
26774;SDS011;14362;51.902;7.626;2024-02-21T06:29:57;20.90;;;10.82;;
26774;SDS011;14362;51.902;7.626;2024-02-21T06:33:59;19.85;;;10.18;;
26774;SDS011;14362;51.902;7.626;2024-02-21T06:38:00;21.48;;;11.60;;
26774;SDS011;14362;51.902;7.626;2024-02-21T06:42:03;26.45;;;10.90;;
26774;SDS011;14362;51.902;7.626;2024-02-21T06:46:04;27.23;;;9.82;;
26774;SDS011;14362;51.902;7.626;2024-02-21T06:50:06;19.30;;;9.73;;
26774;SDS011;14362;51.902;7.626;2024-02-21T06:54:08;23.20;;;9.57;;
26774;SDS011;14362;51.902;7.626;2024-02-21T06:58:11;24.40;;;9.07;;
26774;SDS011;14362;51.902;7.626;2024-02-21T07:02:13;15.25;;;8.60;;
26774;SDS011;14362;51.902;7.626;2024-02-21T07:06:14;20.65;;;8.95;;
26774;SDS011;14362;51.902;7.626;2024-02-21T07:10:16;15.20;;;8.38;;
26774;SDS011;14362;51.902;7.626;2024-02-21T07:14:19;20.48;;;8.93;;
26774;SDS011;14362;51.902;7.626;2024-02-21T07:18:20;17.30;;;8.68;;
26774;SDS011;14362;51.902;7.626;2024-02-21T07:22:22;17.27;;;7.82;;
26774;SDS011;14362;51.902;7.626;2024-02-21T07:26:23;17.73;;;7.28;;
26774;SDS011;14362;51.902;7.626;2024-02-21T07:30:26;17.40;;;7.25;;
26774;SDS011;14362;51.902;7.626;2024-02-21T07:34:27;18.67;;;7.75;;
26774;SDS011;14362;51.902;7.626;2024-02-21T07:38:29;16.20;;;7.70;;
26774;SDS011;14362;51.902;7.626;2024-02-21T07:42:30;12.38;;;7.72;;
26774;SDS011;14362;51.902;7.626;2024-02-21T07:46:33;12.15;;;6.30;;
26774;SDS011;14362;51.902;7.626;2024-02-21T07:50:34;15.88;;;6.78;;
26774;SDS011;14362;51.902;7.626;2024-02-21T07:54:36;9.25;;;6.28;;
26774;SDS011;14362;51.902;7.626;2024-02-21T07:58:37;14.95;;;7.25;;
26774;SDS011;14362;51.902;7.626;2024-02-21T08:02:40;12.60;;;6.50;;
26774;SDS011;14362;51.902;7.626;2024-02-21T08:06:42;14.23;;;6.57;;
26774;SDS011;14362;51.902;7.626;2024-02-21T08:10:45;14.90;;;6.82;;
26774;SDS011;14362;51.902;7.626;2024-02-21T08:14:46;10.88;;;6.28;;
26774;SDS011;14362;51.902;7.626;2024-02-21T08:18:49;11.25;;;6.13;;
26774;SDS011;14362;51.902;7.626;2024-02-21T08:22:50;10.82;;;5.75;;
26774;SDS011;14362;51.902;7.626;2024-02-21T08:26:52;12.57;;;5.90;;
26774;SDS011;14362;51.902;7.626;2024-02-21T08:30:53;12.85;;;5.45;;
26774;SDS011;14362;51.902;7.626;2024-02-21T08:34:56;8.73;;;5.05;;
26774;SDS011;14362;51.902;7.626;2024-02-21T08:38:57;11.30;;;5.65;;
26774;SDS011;14362;51.902;7.626;2024-02-21T08:42:59;13.82;;;6.25;;
26774;SDS011;14362;51.902;7.626;2024-02-21T08:47:00;16.20;;;5.72;;
26774;SDS011;14362;51.902;7.626;2024-02-21T08:51:05;12.75;;;5.47;;
26774;SDS011;14362;51.902;7.626;2024-02-21T08:55:06;10.73;;;5.78;;
26774;SDS011;14362;51.902;7.626;2024-02-21T08:59:08;10.98;;;5.90;;
26774;SDS011;14362;51.902;7.626;2024-02-21T09:03:09;10.40;;;5.82;;
26774;SDS011;14362;51.902;7.626;2024-02-21T09:07:12;10.75;;;5.72;;
26774;SDS011;14362;51.902;7.626;2024-02-21T09:11:13;9.20;;;6.03;;
26774;SDS011;14362;51.902;7.626;2024-02-21T09:15:15;8.15;;;4.95;;
26774;SDS011;14362;51.902;7.626;2024-02-21T09:19:16;11.23;;;6.03;;
26774;SDS011;14362;51.902;7.626;2024-02-21T09:23:19;17.23;;;7.07;;
26774;SDS011;14362;51.902;7.626;2024-02-21T09:27:21;14.13;;;6.13;;
26774;SDS011;14362;51.902;7.626;2024-02-21T09:31:22;15.00;;;5.65;;
26774;SDS011;14362;51.902;7.626;2024-02-21T09:35:24;11.18;;;5.22;;
26774;SDS011;14362;51.902;7.626;2024-02-21T09:39:28;12.65;;;5.57;;
26774;SDS011;14362;51.902;7.626;2024-02-21T09:43:30;13.52;;;6.53;;
26774;SDS011;14362;51.902;7.626;2024-02-21T09:47:34;9.90;;;5.68;;
26774;SDS011;14362;51.902;7.626;2024-02-21T09:51:44;12.60;;;6.22;;
26774;SDS011;14362;51.902;7.626;2024-02-21T09:55:49;11.15;;;5.72;;
26774;SDS011;14362;51.902;7.626;2024-02-21T09:59:51;12.18;;;5.70;;
26774;SDS011;14362;51.902;7.626;2024-02-21T10:03:53;9.38;;;5.43;;
26774;SDS011;14362;51.902;7.626;2024-02-21T10:07:55;9.13;;;4.97;;
26774;SDS011;14362;51.902;7.626;2024-02-21T10:12:08;11.75;;;4.72;;
26774;SDS011;14362;51.902;7.626;2024-02-21T10:16:10;10.38;;;5.35;;
26774;SDS011;14362;51.902;7.626;2024-02-21T10:20:12;10.32;;;5.70;;
26774;SDS011;14362;51.902;7.626;2024-02-21T10:24:14;11.00;;;5.65;;
26774;SDS011;14362;51.902;7.626;2024-02-21T10:28:17;10.50;;;4.95;;
26774;SDS011;14362;51.902;7.626;2024-02-21T10:32:23;11.02;;;5.00;;
26774;SDS011;14362;51.902;7.626;2024-02-21T10:36:26;9.15;;;4.80;;
26774;SDS011;14362;51.902;7.626;2024-02-21T10:40:28;9.43;;;4.38;;
26774;SDS011;14362;51.902;7.626;2024-02-21T10:44:33;8.77;;;4.20;;
26774;SDS011;14362;51.902;7.626;2024-02-21T10:48:44;9.55;;;3.67;;
26774;SDS011;14362;51.902;7.626;2024-02-21T10:52:48;8.32;;;3.65;;
26774;SDS011;14362;51.902;7.626;2024-02-21T10:56:57;6.78;;;3.42;;
26774;SDS011;14362;51.902;7.626;2024-02-21T11:01:03;14.02;;;4.55;;
26774;SDS011;14362;51.902;7.626;2024-02-21T11:05:06;8.07;;;5.00;;
26774;SDS011;14362;51.902;7.626;2024-02-21T11:09:09;11.43;;;6.00;;
26774;SDS011;14362;51.902;7.626;2024-02-21T11:13:11;12.32;;;5.75;;
26774;SDS011;14362;51.902;7.626;2024-02-21T11:17:15;14.88;;;6.95;;
26774;SDS011;14362;51.902;7.626;2024-02-21T11:21:17;13.90;;;6.70;;
26774;SDS011;14362;51.902;7.626;2024-02-21T11:25:21;16.25;;;6.40;;
26774;SDS011;14362;51.902;7.626;2024-02-21T11:29:24;11.25;;;6.43;;
26774;SDS011;14362;51.902;7.626;2024-02-21T11:33:27;14.38;;;6.13;;
26774;SDS011;14362;51.902;7.626;2024-02-21T11:37:28;13.63;;;5.88;;
26774;SDS011;14362;51.902;7.626;2024-02-21T11:41:32;16.05;;;6.35;;
26774;SDS011;14362;51.902;7.626;2024-02-21T11:45:34;10.82;;;6.53;;
26774;SDS011;14362;51.902;7.626;2024-02-21T11:49:37;14.68;;;8.02;;
26774;SDS011;14362;51.902;7.626;2024-02-21T11:53:39;12.10;;;6.63;;
26774;SDS011;14362;51.902;7.626;2024-02-21T11:57:42;12.40;;;7.30;;
26774;SDS011;14362;51.902;7.626;2024-02-21T12:01:46;10.30;;;6.47;;
26774;SDS011;14362;51.902;7.626;2024-02-21T12:05:49;15.07;;;6.15;;
26774;SDS011;14362;51.902;7.626;2024-02-21T12:09:50;12.48;;;6.05;;
26774;SDS011;14362;51.902;7.626;2024-02-21T12:13:58;10.60;;;5.93;;
26774;SDS011;14362;51.902;7.626;2024-02-21T12:18:01;10.98;;;5.38;;
26774;SDS011;14362;51.902;7.626;2024-02-21T12:22:04;10.77;;;4.78;;
26774;SDS011;14362;51.902;7.626;2024-02-21T12:26:08;10.60;;;5.28;;
26774;SDS011;14362;51.902;7.626;2024-02-21T12:30:10;9.70;;;4.93;;
26774;SDS011;14362;51.902;7.626;2024-02-21T12:34:12;10.48;;;4.93;;
26774;SDS011;14362;51.902;7.626;2024-02-21T12:38:15;9.65;;;4.60;;
26774;SDS011;14362;51.902;7.626;2024-02-21T12:42:18;14.10;;;5.40;;
26774;SDS011;14362;51.902;7.626;2024-02-21T12:46:19;9.18;;;4.45;;
26774;SDS011;14362;51.902;7.626;2024-02-21T12:50:20;10.75;;;5.30;;
26774;SDS011;14362;51.902;7.626;2024-02-21T12:54:24;10.13;;;4.97;;
26774;SDS011;14362;51.902;7.626;2024-02-21T12:58:26;7.65;;;4.68;;
26774;SDS011;14362;51.902;7.626;2024-02-21T13:02:28;9.93;;;5.50;;
26774;SDS011;14362;51.902;7.626;2024-02-21T13:06:30;8.23;;;5.60;;
26774;SDS011;14362;51.902;7.626;2024-02-21T13:10:33;9.57;;;5.90;;
26774;SDS011;14362;51.902;7.626;2024-02-21T13:14:35;10.02;;;6.82;;
26774;SDS011;14362;51.902;7.626;2024-02-21T13:18:38;11.35;;;6.18;;
26774;SDS011;14362;51.902;7.626;2024-02-21T13:22:42;10.70;;;6.68;;
26774;SDS011;14362;51.902;7.626;2024-02-21T13:26:45;12.65;;;7.05;;
26774;SDS011;14362;51.902;7.626;2024-02-21T13:30:47;10.32;;;6.47;;
26774;SDS011;14362;51.902;7.626;2024-02-21T13:34:48;9.43;;;6.00;;
26774;SDS011;14362;51.902;7.626;2024-02-21T13:38:51;9.48;;;6.00;;
26774;SDS011;14362;51.902;7.626;2024-02-21T13:42:55;11.70;;;6.07;;
26774;SDS011;14362;51.902;7.626;2024-02-21T13:46:56;12.98;;;5.93;;
26774;SDS011;14362;51.902;7.626;2024-02-21T13:50:57;12.10;;;6.15;;
26774;SDS011;14362;51.902;7.626;2024-02-21T13:54:59;11.88;;;6.15;;
26774;SDS011;14362;51.902;7.626;2024-02-21T13:59:01;10.27;;;5.65;;
26774;SDS011;14362;51.902;7.626;2024-02-21T14:03:04;9.95;;;4.95;;
26774;SDS011;14362;51.902;7.626;2024-02-21T14:07:05;10.20;;;5.00;;
26774;SDS011;14362;51.902;7.626;2024-02-21T14:11:07;9.98;;;4.80;;
26774;SDS011;14362;51.902;7.626;2024-02-21T14:15:10;8.98;;;4.35;;
26774;SDS011;14362;51.902;7.626;2024-02-21T14:19:12;12.10;;;4.18;;
26774;SDS011;14362;51.902;7.626;2024-02-21T14:23:13;14.27;;;5.00;;
26774;SDS011;14362;51.902;7.626;2024-02-21T14:27:15;11.52;;;4.40;;
26774;SDS011;14362;51.902;7.626;2024-02-21T14:31:17;10.90;;;3.58;;
26774;SDS011;14362;51.902;7.626;2024-02-21T14:35:19;9.57;;;3.97;;
26774;SDS011;14362;51.902;7.626;2024-02-21T14:39:21;5.80;;;3.35;;
26774;SDS011;14362;51.902;7.626;2024-02-21T14:43:23;8.40;;;3.88;;
26774;SDS011;14362;51.902;7.626;2024-02-21T14:47:25;10.85;;;3.70;;
26774;SDS011;14362;51.902;7.626;2024-02-21T14:51:27;8.68;;;3.15;;
26774;SDS011;14362;51.902;7.626;2024-02-21T14:55:28;7.32;;;3.25;;
26774;SDS011;14362;51.902;7.626;2024-02-21T14:59:30;6.18;;;3.30;;
26774;SDS011;14362;51.902;7.626;2024-02-21T15:03:33;6.93;;;3.10;;
26774;SDS011;14362;51.902;7.626;2024-02-21T15:07:34;8.73;;;3.10;;
26774;SDS011;14362;51.902;7.626;2024-02-21T15:11:36;7.90;;;3.22;;
26774;SDS011;14362;51.902;7.626;2024-02-21T15:15:37;10.82;;;3.33;;
26774;SDS011;14362;51.902;7.626;2024-02-21T15:19:40;7.35;;;2.78;;
26774;SDS011;14362;51.902;7.626;2024-02-21T15:23:43;7.00;;;3.00;;
26774;SDS011;14362;51.902;7.626;2024-02-21T15:27:45;7.97;;;3.15;;
26774;SDS011;14362;51.902;7.626;2024-02-21T15:31:46;9.43;;;3.05;;
26774;SDS011;14362;51.902;7.626;2024-02-21T15:35:49;8.82;;;3.33;;
26774;SDS011;14362;51.902;7.626;2024-02-21T15:39:50;7.75;;;3.20;;
26774;SDS011;14362;51.902;7.626;2024-02-21T15:43:52;7.07;;;2.92;;
26774;SDS011;14362;51.902;7.626;2024-02-21T15:47:53;6.90;;;3.45;;
26774;SDS011;14362;51.902;7.626;2024-02-21T15:51:56;9.15;;;3.55;;
26774;SDS011;14362;51.902;7.626;2024-02-21T15:55:58;7.55;;;3.10;;
26774;SDS011;14362;51.902;7.626;2024-02-21T15:59:59;10.52;;;3.40;;
26774;SDS011;14362;51.902;7.626;2024-02-21T16:04:00;8.85;;;3.55;;
26774;SDS011;14362;51.902;7.626;2024-02-21T16:08:04;9.05;;;3.38;;
26774;SDS011;14362;51.902;7.626;2024-02-21T16:12:05;9.80;;;3.80;;
26774;SDS011;14362;51.902;7.626;2024-02-21T16:16:09;9.93;;;3.47;;
26774;SDS011;14362;51.902;7.626;2024-02-21T16:20:11;9.02;;;3.38;;
26774;SDS011;14362;51.902;7.626;2024-02-21T16:24:16;8.35;;;3.50;;
26774;SDS011;14362;51.902;7.626;2024-02-21T16:28:18;14.95;;;7.10;;
26774;SDS011;14362;51.902;7.626;2024-02-21T16:32:19;10.80;;;5.82;;
26774;SDS011;14362;51.902;7.626;2024-02-21T16:36:20;18.02;;;9.65;;
26774;SDS011;14362;51.902;7.626;2024-02-21T16:40:24;18.30;;;7.43;;
26774;SDS011;14362;51.902;7.626;2024-02-21T16:44:25;27.83;;;12.35;;
26774;SDS011;14362;51.902;7.626;2024-02-21T16:48:27;8.93;;;4.47;;
26774;SDS011;14362;51.902;7.626;2024-02-21T16:52:29;24.90;;;11.93;;
26774;SDS011;14362;51.902;7.626;2024-02-21T16:56:32;15.40;;;8.77;;
26774;SDS011;14362;51.902;7.626;2024-02-21T17:00:33;18.60;;;9.25;;
26774;SDS011;14362;51.902;7.626;2024-02-21T17:04:39;10.93;;;5.45;;
26774;SDS011;14362;51.902;7.626;2024-02-21T17:08:40;12.48;;;7.22;;
26774;SDS011;14362;51.902;7.626;2024-02-21T17:12:43;8.32;;;4.13;;
26774;SDS011;14362;51.902;7.626;2024-02-21T17:16:44;9.02;;;3.95;;
26774;SDS011;14362;51.902;7.626;2024-02-21T17:20:46;18.52;;;9.48;;
26774;SDS011;14362;51.902;7.626;2024-02-21T17:24:48;7.93;;;3.72;;
26774;SDS011;14362;51.902;7.626;2024-02-21T17:28:51;9.80;;;4.07;;
26774;SDS011;14362;51.902;7.626;2024-02-21T17:32:53;9.27;;;3.50;;
26774;SDS011;14362;51.902;7.626;2024-02-21T17:36:55;5.00;;;2.70;;
26774;SDS011;14362;51.902;7.626;2024-02-21T17:40:56;7.35;;;3.35;;
26774;SDS011;14362;51.902;7.626;2024-02-21T17:44:59;7.75;;;3.35;;
26774;SDS011;14362;51.902;7.626;2024-02-21T17:49:00;7.00;;;3.08;;
26774;SDS011;14362;51.902;7.626;2024-02-21T17:53:03;7.82;;;2.70;;
26774;SDS011;14362;51.902;7.626;2024-02-21T17:57:04;5.65;;;2.72;;
26774;SDS011;14362;51.902;7.626;2024-02-21T18:01:07;7.25;;;2.60;;
26774;SDS011;14362;51.902;7.626;2024-02-21T18:05:09;5.45;;;2.85;;
26774;SDS011;14362;51.902;7.626;2024-02-21T18:09:11;5.28;;;2.85;;
26774;SDS011;14362;51.902;7.626;2024-02-21T18:13:13;7.35;;;3.25;;
26774;SDS011;14362;51.902;7.626;2024-02-21T18:17:16;8.90;;;3.30;;
26774;SDS011;14362;51.902;7.626;2024-02-21T18:21:17;10.60;;;5.63;;
26774;SDS011;14362;51.902;7.626;2024-02-21T18:25:20;7.82;;;3.50;;
26774;SDS011;14362;51.902;7.626;2024-02-21T18:29:24;5.77;;;2.93;;
26774;SDS011;14362;51.902;7.626;2024-02-21T18:33:28;10.00;;;5.75;;
26774;SDS011;14362;51.902;7.626;2024-02-21T18:37:30;14.43;;;7.35;;
26774;SDS011;14362;51.902;7.626;2024-02-21T18:41:31;31.10;;;13.45;;
26774;SDS011;14362;51.902;7.626;2024-02-21T18:45:33;17.30;;;7.80;;
26774;SDS011;14362;51.902;7.626;2024-02-21T18:49:36;10.85;;;6.05;;
26774;SDS011;14362;51.902;7.626;2024-02-21T18:53:37;7.30;;;3.55;;
26774;SDS011;14362;51.902;7.626;2024-02-21T18:57:39;6.35;;;2.85;;
26774;SDS011;14362;51.902;7.626;2024-02-21T19:01:40;11.05;;;4.20;;
26774;SDS011;14362;51.902;7.626;2024-02-21T19:05:43;4.35;;;2.47;;
26774;SDS011;14362;51.902;7.626;2024-02-21T19:09:44;6.40;;;2.90;;
26774;SDS011;14362;51.902;7.626;2024-02-21T19:13:46;4.03;;;2.20;;
26774;SDS011;14362;51.902;7.626;2024-02-21T19:17:47;7.20;;;2.50;;
26774;SDS011;14362;51.902;7.626;2024-02-21T19:21:50;8.55;;;2.58;;
26774;SDS011;14362;51.902;7.626;2024-02-21T19:25:51;9.05;;;3.72;;
26774;SDS011;14362;51.902;7.626;2024-02-21T19:29:53;6.00;;;2.63;;
26774;SDS011;14362;51.902;7.626;2024-02-21T19:33:54;8.80;;;2.85;;
26774;SDS011;14362;51.902;7.626;2024-02-21T19:37:57;11.63;;;2.90;;
26774;SDS011;14362;51.902;7.626;2024-02-21T19:42:03;7.18;;;2.50;;
26774;SDS011;14362;51.902;7.626;2024-02-21T19:46:05;7.85;;;2.83;;
26774;SDS011;14362;51.902;7.626;2024-02-21T19:50:07;8.32;;;3.72;;
26774;SDS011;14362;51.902;7.626;2024-02-21T19:54:10;8.90;;;2.58;;
26774;SDS011;14362;51.902;7.626;2024-02-21T19:58:13;8.13;;;2.60;;
26774;SDS011;14362;51.902;7.626;2024-02-21T20:02:14;6.38;;;2.42;;
26774;SDS011;14362;51.902;7.626;2024-02-21T20:06:16;5.38;;;2.42;;
26774;SDS011;14362;51.902;7.626;2024-02-21T20:10:19;9.02;;;2.92;;
26774;SDS011;14362;51.902;7.626;2024-02-21T20:14:21;8.90;;;2.83;;
26774;SDS011;14362;51.902;7.626;2024-02-21T20:18:22;5.90;;;2.45;;
26774;SDS011;14362;51.902;7.626;2024-02-21T20:22:23;7.22;;;2.85;;
26774;SDS011;14362;51.902;7.626;2024-02-21T20:26:26;6.18;;;2.70;;
26774;SDS011;14362;51.902;7.626;2024-02-21T20:30:28;4.97;;;2.85;;
26774;SDS011;14362;51.902;7.626;2024-02-21T20:34:29;5.28;;;2.63;;
26774;SDS011;14362;51.902;7.626;2024-02-21T20:38:31;6.03;;;3.00;;
26774;SDS011;14362;51.902;7.626;2024-02-21T20:42:34;6.20;;;2.60;;
26774;SDS011;14362;51.902;7.626;2024-02-21T20:46:36;9.10;;;2.90;;
26774;SDS011;14362;51.902;7.626;2024-02-21T20:50:37;4.60;;;2.55;;
26774;SDS011;14362;51.902;7.626;2024-02-21T20:54:38;6.60;;;2.90;;
26774;SDS011;14362;51.902;7.626;2024-02-21T20:58:41;6.60;;;3.28;;
26774;SDS011;14362;51.902;7.626;2024-02-21T21:02:44;6.95;;;3.20;;
26774;SDS011;14362;51.902;7.626;2024-02-21T21:06:45;8.68;;;4.60;;
26774;SDS011;14362;51.902;7.626;2024-02-21T21:10:47;6.70;;;3.35;;
26774;SDS011;14362;51.902;7.626;2024-02-21T21:14:50;5.07;;;3.28;;
26774;SDS011;14362;51.902;7.626;2024-02-21T21:18:51;7.18;;;3.38;;
26774;SDS011;14362;51.902;7.626;2024-02-21T21:22:53;5.05;;;3.47;;
26774;SDS011;14362;51.902;7.626;2024-02-21T21:26:54;4.15;;;3.05;;
26774;SDS011;14362;51.902;7.626;2024-02-21T21:30:57;6.68;;;3.53;;
26774;SDS011;14362;51.902;7.626;2024-02-21T21:34:58;7.43;;;4.40;;
26774;SDS011;14362;51.902;7.626;2024-02-21T21:39:00;6.53;;;3.47;;
26774;SDS011;14362;51.902;7.626;2024-02-21T21:43:04;6.35;;;3.92;;
26774;SDS011;14362;51.902;7.626;2024-02-21T21:47:07;5.93;;;3.53;;
26774;SDS011;14362;51.902;7.626;2024-02-21T21:51:09;5.47;;;3.60;;
26774;SDS011;14362;51.902;7.626;2024-02-21T21:55:10;5.07;;;3.45;;
26774;SDS011;14362;51.902;7.626;2024-02-21T21:59:12;8.15;;;4.40;;
26774;SDS011;14362;51.902;7.626;2024-02-21T22:03:14;9.27;;;3.90;;
26774;SDS011;14362;51.902;7.626;2024-02-21T22:07:16;8.05;;;4.55;;
26774;SDS011;14362;51.902;7.626;2024-02-21T22:11:18;7.18;;;3.88;;
26774;SDS011;14362;51.902;7.626;2024-02-21T22:15:19;6.97;;;4.35;;
26774;SDS011;14362;51.902;7.626;2024-02-21T22:19:22;6.22;;;4.40;;
26774;SDS011;14362;51.902;7.626;2024-02-21T22:23:23;8.02;;;4.35;;
26774;SDS011;14362;51.902;7.626;2024-02-21T22:27:25;7.18;;;4.25;;
26774;SDS011;14362;51.902;7.626;2024-02-21T22:31:27;5.55;;;4.35;;
26774;SDS011;14362;51.902;7.626;2024-02-21T22:35:30;7.60;;;4.93;;
26774;SDS011;14362;51.902;7.626;2024-02-21T22:39:31;9.15;;;4.43;;
26774;SDS011;14362;51.902;7.626;2024-02-21T22:43:32;5.65;;;4.50;;
26774;SDS011;14362;51.902;7.626;2024-02-21T22:47:34;7.97;;;4.50;;
26774;SDS011;14362;51.902;7.626;2024-02-21T22:51:37;7.53;;;4.93;;
26774;SDS011;14362;51.902;7.626;2024-02-21T22:55:38;7.32;;;4.43;;
26774;SDS011;14362;51.902;7.626;2024-02-21T22:59:39;7.90;;;4.43;;
26774;SDS011;14362;51.902;7.626;2024-02-21T23:03:41;6.30;;;4.20;;
26774;SDS011;14362;51.902;7.626;2024-02-21T23:07:44;8.52;;;4.45;;
26774;SDS011;14362;51.902;7.626;2024-02-21T23:11:49;11.02;;;5.20;;
26774;SDS011;14362;51.902;7.626;2024-02-21T23:15:50;5.22;;;4.03;;
26774;SDS011;14362;51.902;7.626;2024-02-21T23:19:52;5.82;;;4.00;;
26774;SDS011;14362;51.902;7.626;2024-02-21T23:23:55;8.27;;;4.80;;
26774;SDS011;14362;51.902;7.626;2024-02-21T23:27:56;5.72;;;4.03;;
26774;SDS011;14362;51.902;7.626;2024-02-21T23:31:58;8.43;;;4.85;;
26774;SDS011;14362;51.902;7.626;2024-02-21T23:36:02;6.70;;;4.20;;
26774;SDS011;14362;51.902;7.626;2024-02-21T23:40:07;7.18;;;4.47;;
26774;SDS011;14362;51.902;7.626;2024-02-21T23:44:10;9.43;;;4.78;;
26774;SDS011;14362;51.902;7.626;2024-02-21T23:48:12;7.40;;;4.28;;
26774;SDS011;14362;51.902;7.626;2024-02-21T23:52:14;5.95;;;4.25;;
26774;SDS011;14362;51.902;7.626;2024-02-21T23:56:16;6.38;;;3.97;;
